sensor_id;sensor_type;location;lat;lon;timestamp;pressure;altitude;pressure_sealevel;temperature;humidity
13422;BME280;6782;55.904;13.396;2024-03-07T00:01:22;102679.38;;;0.26;100.00
13422;BME280;6782;55.904;13.396;2024-03-07T00:04:12;102689.78;;;0.44;100.00
13422;BME280;6782;55.904;13.396;2024-03-07T00:06:59;102683.84;;;0.46;100.00
13422;BME280;6782;55.904;13.396;2024-03-07T00:09:48;102681.25;;;0.46;100.00
13422;BME280;6782;55.904;13.396;2024-03-07T00:12:37;102691.13;;;0.53;100.00
13422;BME280;6782;55.904;13.396;2024-03-07T00:15:27;102690.38;;;0.56;100.00
13422;BME280;6782;55.904;13.396;2024-03-07T00:18:15;102689.78;;;0.61;100.00
13422;BME280;6782;55.904;13.396;2024-03-07T00:21:03;102702.41;;;0.72;100.00
13422;BME280;6782;55.904;13.396;2024-03-07T00:23:50;102700.91;;;0.77;100.00
13422;BME280;6782;55.904;13.396;2024-03-07T00:26:39;102705.88;;;0.90;100.00
13422;BME280;6782;55.904;13.396;2024-03-07T00:29:27;102708.47;;;0.90;100.00
13422;BME280;6782;55.904;13.396;2024-03-07T00:32:16;102695.59;;;0.93;100.00
13422;BME280;6782;55.904;13.396;2024-03-07T00:35:05;102703.84;;;1.02;100.00
13422;BME280;6782;55.904;13.396;2024-03-07T00:37:53;102700.28;;;1.00;100.00
13422;BME280;6782;55.904;13.396;2024-03-07T00:40:41;102688.25;;;1.02;100.00
13422;BME280;6782;55.904;13.396;2024-03-07T00:43:30;102690.16;;;1.06;100.00
13422;BME280;6782;55.904;13.396;2024-03-07T00:46:18;102692.50;;;1.19;100.00
13422;BME280;6782;55.904;13.396;2024-03-07T00:49:08;102684.44;;;1.13;100.00
13422;BME280;6782;55.904;13.396;2024-03-07T00:51:55;102688.66;;;1.11;100.00
13422;BME280;6782;55.904;13.396;2024-03-07T00:54:42;102671.00;;;1.04;100.00
13422;BME280;6782;55.904;13.396;2024-03-07T00:57:30;102681.16;;;1.17;100.00
13422;BME280;6782;55.904;13.396;2024-03-07T01:00:17;102680.34;;;1.18;100.00
13422;BME280;6782;55.904;13.396;2024-03-07T01:03:07;102681.28;;;1.20;100.00
13422;BME280;6782;55.904;13.396;2024-03-07T01:05:58;102671.84;;;1.22;100.00
13422;BME280;6782;55.904;13.396;2024-03-07T01:08:45;102670.19;;;1.24;100.00
13422;BME280;6782;55.904;13.396;2024-03-07T01:11:32;102671.25;;;1.27;100.00
13422;BME280;6782;55.904;13.396;2024-03-07T01:14:20;102670.63;;;1.33;100.00
13422;BME280;6782;55.904;13.396;2024-03-07T01:17:07;102672.25;;;1.31;100.00
13422;BME280;6782;55.904;13.396;2024-03-07T01:19:55;102663.59;;;1.31;100.00
13422;BME280;6782;55.904;13.396;2024-03-07T01:22:45;102661.47;;;1.41;100.00
13422;BME280;6782;55.904;13.396;2024-03-07T01:25:32;102677.31;;;1.47;100.00
13422;BME280;6782;55.904;13.396;2024-03-07T01:28:19;102666.09;;;1.48;100.00
13422;BME280;6782;55.904;13.396;2024-03-07T01:31:08;102653.31;;;1.53;100.00
13422;BME280;6782;55.904;13.396;2024-03-07T01:33:56;102656.38;;;1.63;100.00
13422;BME280;6782;55.904;13.396;2024-03-07T01:36:43;102643.94;;;1.56;100.00
13422;BME280;6782;55.904;13.396;2024-03-07T01:39:32;102649.94;;;1.55;100.00
13422;BME280;6782;55.904;13.396;2024-03-07T01:42:19;102637.09;;;1.58;100.00
13422;BME280;6782;55.904;13.396;2024-03-07T01:45:07;102637.22;;;1.61;100.00
13422;BME280;6782;55.904;13.396;2024-03-07T01:47:55;102630.22;;;1.60;100.00
13422;BME280;6782;55.904;13.396;2024-03-07T01:50:42;102630.63;;;1.69;100.00
13422;BME280;6782;55.904;13.396;2024-03-07T01:53:31;102625.53;;;1.72;100.00
13422;BME280;6782;55.904;13.396;2024-03-07T01:56:21;102614.63;;;1.60;100.00
13422;BME280;6782;55.904;13.396;2024-03-07T01:59:09;102607.63;;;1.59;100.00
13422;BME280;6782;55.904;13.396;2024-03-07T02:01:57;102609.06;;;1.72;100.00
13422;BME280;6782;55.904;13.396;2024-03-07T02:04:44;102601.06;;;1.67;100.00
13422;BME280;6782;55.904;13.396;2024-03-07T02:07:32;102598.25;;;1.63;100.00
13422;BME280;6782;55.904;13.396;2024-03-07T02:10:19;102585.34;;;1.64;100.00
13422;BME280;6782;55.904;13.396;2024-03-07T02:13:08;102584.22;;;1.59;100.00
13422;BME280;6782;55.904;13.396;2024-03-07T02:15:55;102567.31;;;1.48;100.00
13422;BME280;6782;55.904;13.396;2024-03-07T02:18:43;102569.34;;;1.55;100.00
13422;BME280;6782;55.904;13.396;2024-03-07T02:21:32;102573.28;;;1.66;100.00
13422;BME280;6782;55.904;13.396;2024-03-07T02:24:20;102566.03;;;1.59;100.00
13422;BME280;6782;55.904;13.396;2024-03-07T02:27:07;102562.63;;;1.60;100.00
13422;BME280;6782;55.904;13.396;2024-03-07T02:29:55;102557.69;;;1.66;100.00
13422;BME280;6782;55.904;13.396;2024-03-07T02:32:42;102544.28;;;1.57;100.00
13422;BME280;6782;55.904;13.396;2024-03-07T02:35:34;102530.03;;;1.48;100.00
13422;BME280;6782;55.904;13.396;2024-03-07T02:38:23;102534.31;;;1.47;100.00
13422;BME280;6782;55.904;13.396;2024-03-07T02:41:10;102536.13;;;1.48;100.00
13422;BME280;6782;55.904;13.396;2024-03-07T02:43:58;102539.94;;;1.56;100.00
13422;BME280;6782;55.904;13.396;2024-03-07T02:46:49;102528.38;;;1.50;100.00
13422;BME280;6782;55.904;13.396;2024-03-07T02:49:36;102540.88;;;1.58;100.00
13422;BME280;6782;55.904;13.396;2024-03-07T02:52:23;102540.03;;;1.59;100.00
13422;BME280;6782;55.904;13.396;2024-03-07T02:55:12;102536.63;;;1.60;100.00
13422;BME280;6782;55.904;13.396;2024-03-07T02:57:59;102508.91;;;1.40;100.00
13422;BME280;6782;55.904;13.396;2024-03-07T03:00:47;102527.59;;;1.52;100.00
13422;BME280;6782;55.904;13.396;2024-03-07T03:03:36;102518.59;;;1.44;100.00
13422;BME280;6782;55.904;13.396;2024-03-07T03:06:23;102522.34;;;1.51;100.00
13422;BME280;6782;55.904;13.396;2024-03-07T03:09:11;102506.88;;;1.33;100.00
13422;BME280;6782;55.904;13.396;2024-03-07T03:12:05;102514.25;;;1.43;100.00
13422;BME280;6782;55.904;13.396;2024-03-07T03:14:52;102511.63;;;1.43;100.00
13422;BME280;6782;55.904;13.396;2024-03-07T03:17:40;102507.06;;;1.38;100.00
13422;BME280;6782;55.904;13.396;2024-03-07T03:20:27;102491.81;;;1.26;100.00
13422;BME280;6782;55.904;13.396;2024-03-07T03:23:19;102512.72;;;1.48;100.00
13422;BME280;6782;55.904;13.396;2024-03-07T03:26:06;102499.31;;;1.39;100.00
13422;BME280;6782;55.904;13.396;2024-03-07T03:28:55;102477.88;;;1.24;100.00
13422;BME280;6782;55.904;13.396;2024-03-07T03:31:43;102485.00;;;1.28;100.00
13422;BME280;6782;55.904;13.396;2024-03-07T03:34:32;102490.31;;;1.31;100.00
13422;BME280;6782;55.904;13.396;2024-03-07T03:37:19;102468.88;;;1.16;100.00
13422;BME280;6782;55.904;13.396;2024-03-07T03:40:08;102468.69;;;1.11;100.00
13422;BME280;6782;55.904;13.396;2024-03-07T03:42:56;102483.78;;;1.20;100.00
13422;BME280;6782;55.904;13.396;2024-03-07T03:45:45;102470.34;;;1.09;100.00
13422;BME280;6782;55.904;13.396;2024-03-07T03:48:33;102488.03;;;1.18;100.00
13422;BME280;6782;55.904;13.396;2024-03-07T03:51:20;102469.25;;;1.04;100.00
13422;BME280;6782;55.904;13.396;2024-03-07T03:54:08;102477.25;;;1.09;100.00
13422;BME280;6782;55.904;13.396;2024-03-07T03:56:56;102466.19;;;0.94;100.00
13422;BME280;6782;55.904;13.396;2024-03-07T03:59:44;102474.94;;;0.96;100.00
13422;BME280;6782;55.904;13.396;2024-03-07T04:02:33;102474.81;;;0.93;100.00
13422;BME280;6782;55.904;13.396;2024-03-07T04:05:20;102491.03;;;1.08;100.00
13422;BME280;6782;55.904;13.396;2024-03-07T04:08:08;102494.63;;;1.10;100.00
13422;BME280;6782;55.904;13.396;2024-03-07T04:10:56;102502.75;;;1.17;100.00
13422;BME280;6782;55.904;13.396;2024-03-07T04:13:45;102477.53;;;0.96;100.00
13422;BME280;6782;55.904;13.396;2024-03-07T04:16:32;102477.16;;;0.87;100.00
13422;BME280;6782;55.904;13.396;2024-03-07T04:19:22;102483.63;;;0.96;100.00
13422;BME280;6782;55.904;13.396;2024-03-07T04:22:09;102502.34;;;1.08;100.00
13422;BME280;6782;55.904;13.396;2024-03-07T04:24:57;102498.59;;;1.02;100.00
13422;BME280;6782;55.904;13.396;2024-03-07T04:27:44;102490.53;;;0.96;100.00
13422;BME280;6782;55.904;13.396;2024-03-07T04:30:31;102499.41;;;1.01;100.00
13422;BME280;6782;55.904;13.396;2024-03-07T04:33:19;102493.44;;;1.03;100.00
13422;BME280;6782;55.904;13.396;2024-03-07T04:36:08;102486.84;;;0.91;100.00
13422;BME280;6782;55.904;13.396;2024-03-07T04:38:55;102474.16;;;0.78;100.00
13422;BME280;6782;55.904;13.396;2024-03-07T04:41:43;102476.75;;;0.78;100.00
13422;BME280;6782;55.904;13.396;2024-03-07T04:44:30;102483.59;;;0.76;100.00
13422;BME280;6782;55.904;13.396;2024-03-07T04:47:18;102496.34;;;0.90;100.00
13422;BME280;6782;55.904;13.396;2024-03-07T04:50:06;102479.47;;;0.81;100.00
13422;BME280;6782;55.904;13.396;2024-03-07T04:52:58;102477.16;;;0.68;100.00
13422;BME280;6782;55.904;13.396;2024-03-07T04:55:45;102487.69;;;0.71;100.00
13422;BME280;6782;55.904;13.396;2024-03-07T04:58:32;102496.72;;;0.79;100.00
13422;BME280;6782;55.904;13.396;2024-03-07T05:01:20;102497.47;;;0.76;100.00
13422;BME280;6782;55.904;13.396;2024-03-07T05:04:07;102510.50;;;0.78;100.00
13422;BME280;6782;55.904;13.396;2024-03-07T05:06:55;102498.81;;;0.68;100.00
13422;BME280;6782;55.904;13.396;2024-03-07T05:09:45;102508.59;;;0.74;100.00
13422;BME280;6782;55.904;13.396;2024-03-07T05:12:32;102511.88;;;0.70;100.00
13422;BME280;6782;55.904;13.396;2024-03-07T05:15:19;102516.94;;;0.67;100.00
13422;BME280;6782;55.904;13.396;2024-03-07T05:18:06;102527.59;;;0.73;100.00
13422;BME280;6782;55.904;13.396;2024-03-07T05:20:54;102496.59;;;0.56;100.00
13422;BME280;6782;55.904;13.396;2024-03-07T05:23:41;102515.91;;;0.63;100.00
13422;BME280;6782;55.904;13.396;2024-03-07T05:26:30;102516.72;;;0.62;100.00
13422;BME280;6782;55.904;13.396;2024-03-07T05:29:19;102510.16;;;0.51;100.00
13422;BME280;6782;55.904;13.396;2024-03-07T05:32:20;102517.88;;;0.49;100.00
13422;BME280;6782;55.904;13.396;2024-03-07T05:35:08;102538.94;;;0.55;100.00
13422;BME280;6782;55.904;13.396;2024-03-07T05:37:56;102540.56;;;0.53;100.00
13422;BME280;6782;55.904;13.396;2024-03-07T05:40:45;102531.69;;;0.48;100.00
13422;BME280;6782;55.904;13.396;2024-03-07T05:43:35;102548.97;;;0.48;100.00
13422;BME280;6782;55.904;13.396;2024-03-07T05:46:22;102568.72;;;0.63;100.00
13422;BME280;6782;55.904;13.396;2024-03-07T05:49:10;102558.59;;;0.50;100.00
13422;BME280;6782;55.904;13.396;2024-03-07T05:51:57;102560.28;;;0.50;100.00
13422;BME280;6782;55.904;13.396;2024-03-07T05:54:44;102571.88;;;0.56;100.00
13422;BME280;6782;55.904;13.396;2024-03-07T05:57:31;102583.41;;;0.63;100.00
13422;BME280;6782;55.904;13.396;2024-03-07T06:00:20;102585.31;;;0.67;100.00
13422;BME280;6782;55.904;13.396;2024-03-07T06:03:12;102575.25;;;0.55;100.00
13422;BME280;6782;55.904;13.396;2024-03-07T06:06:02;102576.75;;;0.50;100.00
13422;BME280;6782;55.904;13.396;2024-03-07T06:08:50;102590.03;;;0.56;100.00
13422;BME280;6782;55.904;13.396;2024-03-07T06:11:38;102596.63;;;0.50;100.00
13422;BME280;6782;55.904;13.396;2024-03-07T06:14:27;102605.63;;;0.56;100.00
13422;BME280;6782;55.904;13.396;2024-03-07T06:17:17;102604.34;;;0.48;100.00
13422;BME280;6782;55.904;13.396;2024-03-07T06:20:07;102603.63;;;0.33;100.00
13422;BME280;6782;55.904;13.396;2024-03-07T06:23:08;102610.44;;;0.31;100.00
13422;BME280;6782;55.904;13.396;2024-03-07T06:25:57;102613.72;;;0.27;100.00
13422;BME280;6782;55.904;13.396;2024-03-07T06:28:45;102611.78;;;0.23;100.00
13422;BME280;6782;55.904;13.396;2024-03-07T06:31:33;102597.47;;;0.14;100.00
13422;BME280;6782;55.904;13.396;2024-03-07T06:34:22;102616.53;;;0.14;100.00
13422;BME280;6782;55.904;13.396;2024-03-07T06:37:09;102620.06;;;0.16;100.00
13422;BME280;6782;55.904;13.396;2024-03-07T06:39:58;102627.06;;;0.17;100.00
13422;BME280;6782;55.904;13.396;2024-03-07T06:42:45;102632.25;;;0.17;100.00
13422;BME280;6782;55.904;13.396;2024-03-07T06:45:33;102629.13;;;0.07;100.00
13422;BME280;6782;55.904;13.396;2024-03-07T06:48:20;102649.56;;;0.18;100.00
13422;BME280;6782;55.904;13.396;2024-03-07T06:51:09;102648.56;;;0.15;100.00
13422;BME280;6782;55.904;13.396;2024-03-07T06:53:56;102646.75;;;0.14;100.00
13422;BME280;6782;55.904;13.396;2024-03-07T06:56:44;102634.00;;;0.00;100.00
13422;BME280;6782;55.904;13.396;2024-03-07T06:59:31;102645.44;;;0.04;100.00
13422;BME280;6782;55.904;13.396;2024-03-07T07:02:18;102645.22;;;-0.01;100.00
13422;BME280;6782;55.904;13.396;2024-03-07T07:05:07;102650.63;;;0.04;100.00
13422;BME280;6782;55.904;13.396;2024-03-07T07:07:58;102655.97;;;0.07;100.00
13422;BME280;6782;55.904;13.396;2024-03-07T07:10:45;102659.69;;;0.12;100.00
13422;BME280;6782;55.904;13.396;2024-03-07T07:13:32;102649.28;;;0.12;100.00
13422;BME280;6782;55.904;13.396;2024-03-07T07:16:20;102662.06;;;0.25;100.00
13422;BME280;6782;55.904;13.396;2024-03-07T07:19:09;102664.34;;;0.19;100.00
13422;BME280;6782;55.904;13.396;2024-03-07T07:21:56;102656.41;;;0.16;100.00
13422;BME280;6782;55.904;13.396;2024-03-07T07:24:45;102656.41;;;0.16;100.00
13422;BME280;6782;55.904;13.396;2024-03-07T07:27:32;102655.50;;;0.16;100.00
13422;BME280;6782;55.904;13.396;2024-03-07T07:30:21;102665.59;;;0.27;100.00
13422;BME280;6782;55.904;13.396;2024-03-07T07:33:08;102662.47;;;0.17;100.00
13422;BME280;6782;55.904;13.396;2024-03-07T07:35:55;102661.59;;;0.16;100.00
13422;BME280;6782;55.904;13.396;2024-03-07T07:38:42;102665.75;;;0.30;100.00
13422;BME280;6782;55.904;13.396;2024-03-07T07:41:31;102658.63;;;0.26;100.00
13422;BME280;6782;55.904;13.396;2024-03-07T07:44:18;102667.53;;;0.31;100.00
13422;BME280;6782;55.904;13.396;2024-03-07T07:47:05;102668.00;;;0.40;100.00
13422;BME280;6782;55.904;13.396;2024-03-07T07:49:52;102661.00;;;0.39;100.00
13422;BME280;6782;55.904;13.396;2024-03-07T07:52:40;102674.88;;;0.57;100.00
13422;BME280;6782;55.904;13.396;2024-03-07T07:55:29;102677.91;;;0.67;100.00
13422;BME280;6782;55.904;13.396;2024-03-07T07:58:18;102668.50;;;0.69;100.00
13422;BME280;6782;55.904;13.396;2024-03-07T08:01:05;102671.34;;;0.75;100.00
13422;BME280;6782;55.904;13.396;2024-03-07T08:03:55;102694.53;;;1.07;100.00
13422;BME280;6782;55.904;13.396;2024-03-07T08:06:44;102679.84;;;1.07;100.00
13422;BME280;6782;55.904;13.396;2024-03-07T08:09:32;102698.38;;;1.34;100.00
13422;BME280;6782;55.904;13.396;2024-03-07T08:12:19;102692.09;;;1.48;100.00
13422;BME280;6782;55.904;13.396;2024-03-07T08:15:09;102698.88;;;1.64;100.00
13422;BME280;6782;55.904;13.396;2024-03-07T08:17:59;102668.09;;;1.54;100.00
13422;BME280;6782;55.904;13.396;2024-03-07T08:20:46;102688.00;;;1.93;100.00
13422;BME280;6782;55.904;13.396;2024-03-07T08:23:37;102682.31;;;2.02;100.00
13422;BME280;6782;55.904;13.396;2024-03-07T08:26:24;102653.72;;;1.82;100.00
13422;BME280;6782;55.904;13.396;2024-03-07T08:29:11;102646.88;;;1.84;100.00
13422;BME280;6782;55.904;13.396;2024-03-07T08:32:00;102643.84;;;1.95;100.00
13422;BME280;6782;55.904;13.396;2024-03-07T08:34:48;102639.09;;;2.05;100.00
13422;BME280;6782;55.904;13.396;2024-03-07T08:37:36;102623.41;;;2.04;100.00
13422;BME280;6782;55.904;13.396;2024-03-07T08:40:24;102624.91;;;2.19;100.00
13422;BME280;6782;55.904;13.396;2024-03-07T08:43:11;102631.75;;;2.38;100.00
13422;BME280;6782;55.904;13.396;2024-03-07T08:46:00;102613.44;;;2.36;100.00
13422;BME280;6782;55.904;13.396;2024-03-07T08:48:48;102604.31;;;2.46;100.00
13422;BME280;6782;55.904;13.396;2024-03-07T08:51:38;102555.28;;;2.14;100.00
13422;BME280;6782;55.904;13.396;2024-03-07T08:54:25;102558.91;;;2.17;100.00
13422;BME280;6782;55.904;13.396;2024-03-07T08:57:12;102538.00;;;2.16;100.00
13422;BME280;6782;55.904;13.396;2024-03-07T09:00:03;102537.66;;;2.29;100.00
13422;BME280;6782;55.904;13.396;2024-03-07T09:02:55;102535.06;;;2.51;100.00
13422;BME280;6782;55.904;13.396;2024-03-07T09:05:45;102516.88;;;2.52;100.00
13422;BME280;6782;55.904;13.396;2024-03-07T09:08:33;102517.91;;;2.56;100.00
13422;BME280;6782;55.904;13.396;2024-03-07T09:11:20;102511.47;;;2.70;100.00
13422;BME280;6782;55.904;13.396;2024-03-07T09:14:07;102484.72;;;2.52;100.00
13422;BME280;6782;55.904;13.396;2024-03-07T09:16:55;102491.28;;;2.65;100.00
13422;BME280;6782;55.904;13.396;2024-03-07T09:19:43;102480.66;;;2.82;100.00
13422;BME280;6782;55.904;13.396;2024-03-07T09:22:32;102473.91;;;2.87;100.00
13422;BME280;6782;55.904;13.396;2024-03-07T09:25:19;102443.84;;;2.73;100.00
13422;BME280;6782;55.904;13.396;2024-03-07T09:28:07;102457.91;;;3.02;100.00
13422;BME280;6782;55.904;13.396;2024-03-07T09:30:54;102448.66;;;3.11;100.00
13422;BME280;6782;55.904;13.396;2024-03-07T09:33:41;102441.09;;;3.19;100.00
13422;BME280;6782;55.904;13.396;2024-03-07T09:36:28;102453.53;;;3.53;100.00
13422;BME280;6782;55.904;13.396;2024-03-07T09:39:17;102440.69;;;3.59;100.00
13422;BME280;6782;55.904;13.396;2024-03-07T09:42:05;102436.69;;;3.70;100.00
13422;BME280;6782;55.904;13.396;2024-03-07T09:44:56;102393.69;;;3.57;100.00
13422;BME280;6782;55.904;13.396;2024-03-07T09:47:46;102395.84;;;3.70;100.00
13422;BME280;6782;55.904;13.396;2024-03-07T09:50:35;102405.47;;;4.01;100.00
13422;BME280;6782;55.904;13.396;2024-03-07T09:53:24;102385.44;;;4.00;100.00
13422;BME280;6782;55.904;13.396;2024-03-07T09:56:13;102302.91;;;3.46;100.00
13422;BME280;6782;55.904;13.396;2024-03-07T09:59:04;102322.44;;;3.58;100.00
13422;BME280;6782;55.904;13.396;2024-03-07T10:01:55;102325.78;;;3.83;100.00
13422;BME280;6782;55.904;13.396;2024-03-07T10:04:43;102333.38;;;4.05;100.00
13422;BME280;6782;55.904;13.396;2024-03-07T10:07:31;102324.88;;;4.12;100.00
13422;BME280;6782;55.904;13.396;2024-03-07T10:10:20;102251.50;;;3.71;100.00
13422;BME280;6782;55.904;13.396;2024-03-07T10:13:09;102265.97;;;3.90;100.00
13422;BME280;6782;55.904;13.396;2024-03-07T10:15:57;102294.16;;;4.34;100.00
13422;BME280;6782;55.904;13.396;2024-03-07T10:18:46;102250.25;;;4.21;100.00
13422;BME280;6782;55.904;13.396;2024-03-07T10:21:36;102218.44;;;4.03;100.00
13422;BME280;6782;55.904;13.396;2024-03-07T10:24:24;102183.69;;;3.73;100.00
13422;BME280;6782;55.904;13.396;2024-03-07T10:27:11;102242.00;;;4.37;100.00
13422;BME280;6782;55.904;13.396;2024-03-07T10:30:01;102184.25;;;4.25;100.00
13422;BME280;6782;55.904;13.396;2024-03-07T10:32:52;102149.00;;;4.08;100.00
13422;BME280;6782;55.904;13.396;2024-03-07T10:35:40;102094.16;;;3.74;100.00
13422;BME280;6782;55.904;13.396;2024-03-07T10:38:28;102190.22;;;4.57;100.00
13422;BME280;6782;55.904;13.396;2024-03-07T10:41:16;102148.25;;;4.50;100.00
13422;BME280;6782;55.904;13.396;2024-03-07T10:44:04;102123.91;;;4.51;100.00
13422;BME280;6782;55.904;13.396;2024-03-07T10:46:56;102068.28;;;4.17;100.00
13422;BME280;6782;55.904;13.396;2024-03-07T10:49:55;102062.50;;;4.30;100.00
13422;BME280;6782;55.904;13.396;2024-03-07T10:52:49;102050.25;;;4.28;100.00
13422;BME280;6782;55.904;13.396;2024-03-07T10:55:49;102019.50;;;4.16;100.00
13422;BME280;6782;55.904;13.396;2024-03-07T10:58:47;102084.34;;;4.73;100.00
13422;BME280;6782;55.904;13.396;2024-03-07T11:01:43;102015.09;;;4.51;100.00
13422;BME280;6782;55.904;13.396;2024-03-07T11:04:36;102040.84;;;4.75;100.00
13422;BME280;6782;55.904;13.396;2024-03-07T11:07:24;102039.53;;;4.95;100.00
13422;BME280;6782;55.904;13.396;2024-03-07T11:10:13;102073.66;;;5.47;100.00
13422;BME280;6782;55.904;13.396;2024-03-07T11:13:03;102028.47;;;5.54;100.00
13422;BME280;6782;55.904;13.396;2024-03-07T11:15:51;101944.88;;;5.13;100.00
13422;BME280;6782;55.904;13.396;2024-03-07T11:22:28;101889.00;;;5.61;100.00
13422;BME280;6782;55.904;13.396;2024-03-07T11:25:20;101862.38;;;5.31;100.00
13422;BME280;6782;55.904;13.396;2024-03-07T11:28:08;101903.88;;;5.64;100.00
13422;BME280;6782;55.904;13.396;2024-03-07T11:31:07;101795.06;;;5.18;100.00
13422;BME280;6782;55.904;13.396;2024-03-07T11:34:13;101844.47;;;5.58;100.00
13422;BME280;6782;55.904;13.396;2024-03-07T11:37:01;101903.09;;;6.31;100.00
13422;BME280;6782;55.904;13.396;2024-03-07T11:39:51;101726.81;;;5.67;100.00
13422;BME280;6782;55.904;13.396;2024-03-07T11:42:43;101818.16;;;6.11;100.00
13422;BME280;6782;55.904;13.396;2024-03-07T11:45:32;101773.00;;;6.33;100.00
13422;BME280;6782;55.904;13.396;2024-03-07T11:48:24;101663.41;;;5.87;100.00
13422;BME280;6782;55.904;13.396;2024-03-07T11:51:13;101627.50;;;5.77;100.00
13422;BME280;6782;55.904;13.396;2024-03-07T11:54:01;101594.25;;;5.66;100.00
13422;BME280;6782;55.904;13.396;2024-03-07T11:56:49;101562.81;;;5.62;100.00
13422;BME280;6782;55.904;13.396;2024-03-07T11:59:37;101562.97;;;5.82;100.00
13422;BME280;6782;55.904;13.396;2024-03-07T12:02:24;101555.31;;;6.00;100.00
13422;BME280;6782;55.904;13.396;2024-03-07T12:05:11;101474.16;;;6.00;100.00
13422;BME280;6782;55.904;13.396;2024-03-07T12:08:01;101408.69;;;5.95;100.00
13422;BME280;6782;55.904;13.396;2024-03-07T12:10:52;101479.53;;;6.21;100.00
13422;BME280;6782;55.904;13.396;2024-03-07T12:13:44;101430.66;;;6.23;100.00
13422;BME280;6782;55.904;13.396;2024-03-07T12:16:31;101392.28;;;6.31;100.00
13422;BME280;6782;55.904;13.396;2024-03-07T12:19:19;101378.34;;;6.38;100.00
13422;BME280;6782;55.904;13.396;2024-03-07T12:22:08;101297.13;;;6.38;100.00
13422;BME280;6782;55.904;13.396;2024-03-07T12:25:01;101315.53;;;6.74;100.00
13422;BME280;6782;55.904;13.396;2024-03-07T12:27:59;101313.81;;;6.94;100.00
13422;BME280;6782;55.904;13.396;2024-03-07T12:30:51;101403.84;;;7.72;100.00
13422;BME280;6782;55.904;13.396;2024-03-07T12:33:38;101158.09;;;7.35;100.00
13422;BME280;6782;55.904;13.396;2024-03-07T12:36:28;100980.91;;;6.73;100.00
13422;BME280;6782;55.904;13.396;2024-03-07T12:39:23;101140.66;;;7.31;100.00
13422;BME280;6782;55.904;13.396;2024-03-07T12:42:19;100953.72;;;6.91;100.00
13422;BME280;6782;55.904;13.396;2024-03-07T12:45:06;101068.78;;;7.59;100.00
13422;BME280;6782;55.904;13.396;2024-03-07T12:47:55;101149.78;;;8.21;100.00
13422;BME280;6782;55.904;13.396;2024-03-07T12:50:45;100797.59;;;7.57;100.00
13422;BME280;6782;55.904;13.396;2024-03-07T12:53:33;100603.34;;;6.90;100.00
13422;BME280;6782;55.904;13.396;2024-03-07T12:56:20;100804.66;;;7.52;100.00
13422;BME280;6782;55.904;13.396;2024-03-07T12:59:08;100734.66;;;7.54;100.00
13422;BME280;6782;55.904;13.396;2024-03-07T13:01:55;100807.41;;;8.17;100.00
13422;BME280;6782;55.904;13.396;2024-03-07T13:04:44;100801.66;;;8.57;100.00
13422;BME280;6782;55.904;13.396;2024-03-07T13:07:33;100185.28;;;7.14;100.00
13422;BME280;6782;55.904;13.396;2024-03-07T13:10:20;100462.47;;;7.65;100.00
13422;BME280;6782;55.904;13.396;2024-03-07T13:13:07;100488.03;;;8.04;100.00
13422;BME280;6782;55.904;13.396;2024-03-07T13:15:56;100342.56;;;8.11;100.00
13422;BME280;6782;55.904;13.396;2024-03-07T13:18:44;100179.31;;;7.91;100.00
13422;BME280;6782;55.904;13.396;2024-03-07T13:21:33;100261.09;;;8.14;100.00
13422;BME280;6782;55.904;13.396;2024-03-07T13:24:22;100071.50;;;8.00;100.00
13422;BME280;6782;55.904;13.396;2024-03-07T13:27:10;100069.78;;;8.35;100.00
13422;BME280;6782;55.904;13.396;2024-03-07T13:29:59;100099.56;;;8.69;100.00
13422;BME280;6782;55.904;13.396;2024-03-07T13:32:46;99724.53;;;7.83;100.00
13422;BME280;6782;55.904;13.396;2024-03-07T13:35:33;99999.16;;;8.56;100.00
13422;BME280;6782;55.904;13.396;2024-03-07T13:38:23;99638.09;;;8.06;100.00
13422;BME280;6782;55.904;13.396;2024-03-07T13:41:12;99347.94;;;7.18;100.00
13422;BME280;6782;55.904;13.396;2024-03-07T13:44:00;99507.25;;;7.39;100.00
13422;BME280;6782;55.904;13.396;2024-03-07T13:46:48;99539.34;;;7.47;100.00
13422;BME280;6782;55.904;13.396;2024-03-07T13:49:35;99693.59;;;7.65;100.00
13422;BME280;6782;55.904;13.396;2024-03-07T13:52:23;99911.47;;;8.28;100.00
13422;BME280;6782;55.904;13.396;2024-03-07T13:55:15;99847.03;;;8.47;100.00
13422;BME280;6782;55.904;13.396;2024-03-07T13:58:07;99420.50;;;7.71;100.00
13422;BME280;6782;55.904;13.396;2024-03-07T14:01:14;99410.06;;;7.43;100.00
13422;BME280;6782;55.904;13.396;2024-03-07T14:07:50;99736.22;;;8.61;100.00
13422;BME280;6782;55.904;13.396;2024-03-07T14:11:13;99361.94;;;8.45;100.00
13422;BME280;6782;55.904;13.396;2024-03-07T14:17:52;98956.13;;;7.05;100.00
13422;BME280;6782;55.904;13.396;2024-03-07T14:21:12;99493.69;;;7.80;100.00
13422;BME280;6782;55.904;13.396;2024-03-07T14:24:32;99251.09;;;7.39;100.00
13422;BME280;6782;55.904;13.396;2024-03-07T14:27:30;99187.94;;;7.21;100.00
13422;BME280;6782;55.904;13.396;2024-03-07T14:30:31;99303.56;;;7.38;100.00
13422;BME280;6782;55.904;13.396;2024-03-07T14:33:27;99836.00;;;8.64;100.00
13422;BME280;6782;55.904;13.396;2024-03-07T14:36:17;99245.88;;;7.87;100.00
13422;BME280;6782;55.904;13.396;2024-03-07T14:39:05;99327.34;;;8.34;100.00
13422;BME280;6782;55.904;13.396;2024-03-07T14:42:01;98867.00;;;7.48;100.00
13422;BME280;6782;55.904;13.396;2024-03-07T14:44:57;98702.97;;;7.01;100.00
13422;BME280;6782;55.904;13.396;2024-03-07T14:47:53;98863.91;;;7.17;100.00
13422;BME280;6782;55.904;13.396;2024-03-07T14:50:42;98948.34;;;7.25;100.00
13422;BME280;6782;55.904;13.396;2024-03-07T14:53:30;99472.00;;;8.28;100.00
13422;BME280;6782;55.904;13.396;2024-03-07T14:56:18;98946.03;;;7.82;100.00